Time;durP1;ratioP1;P1;durP2;ratioP2;P2;SDS_P1;SDS_P2;PMS_P1;PMS_P2;Temp;Humidity;BMP_temperature;BMP_pressure;BME280_temperature;BME280_humidity;BME280_pressure;Samples;Min_cycle;Max_cycle;Signal;HPM_P1;HPM_P2
2022/12/07 00:01:30;;;;;;;10.23;5.07;;;;;;;10.81;75.50;100158.44;5013698;28;20389;-84
2022/12/07 00:04:04;;;;;;;11.77;5.78;;;;;;;10.80;75.36;100159.38;5014003;28;20049;-83
2022/12/07 00:06:33;;;;;;;9.45;5.20;;;;;;;10.81;75.33;100152.25;5013456;28;20121;-83
2022/12/07 00:09:02;;;;;;;8.88;4.95;;;;;;;10.79;75.38;100144.31;5013371;28;20042;-82
2022/12/07 00:11:30;;;;;;;11.63;4.88;;;;;;;10.77;75.24;100138.22;4996719;28;20120;-82
2022/12/07 00:14:01;;;;;;;9.18;4.95;;;;;;;10.78;75.25;100139.94;5017489;28;20050;-82
2022/12/07 00:16:31;;;;;;;9.25;5.35;;;;;;;10.75;75.20;100128.59;5017615;28;20050;-83
2022/12/07 00:19:00;;;;;;;9.25;4.93;;;;;;;10.75;75.02;100140.13;5017857;28;20088;-82
2022/12/07 00:21:31;;;;;;;10.45;4.78;;;;;;;10.75;75.02;100132.13;4999744;28;20054;-83
2022/12/07 00:23:59;;;;;;;9.32;4.85;;;;;;;10.73;74.93;100128.72;5017523;28;20046;-83
2022/12/07 00:26:29;;;;;;;8.85;5.03;;;;;;;10.70;74.98;100112.00;5017195;28;20049;-82
2022/12/07 00:28:59;;;;;;;8.98;4.75;;;;;;;10.71;75.01;100127.06;5017218;28;20132;-83
2022/12/07 00:31:29;;;;;;;10.05;4.88;;;;;;;10.62;74.93;100104.53;5017507;28;20391;-83
2022/12/07 00:34:00;;;;;;;8.00;4.63;;;;;;;10.68;74.86;100117.44;5017213;28;20473;-83
2022/12/07 00:36:29;;;;;;;11.35;5.13;;;;;;;10.69;74.79;100110.31;5017312;28;20046;-83
2022/12/07 00:38:59;;;;;;;10.43;5.20;;;;;;;10.69;74.91;100116.50;5016967;28;20362;-82
2022/12/07 00:41:28;;;;;;;9.60;4.93;;;;;;;10.68;74.78;100112.13;5016843;28;20125;-83
2022/12/07 00:43:57;;;;;;;8.25;5.07;;;;;;;10.67;74.53;100112.22;5016601;28;20065;-82
2022/12/07 00:46:25;;;;;;;9.63;4.88;;;;;;;10.67;74.71;100113.06;5016881;28;20052;-83
2022/12/07 00:48:54;;;;;;;7.88;4.88;;;;;;;10.65;74.61;100115.00;5016813;28;20042;-83
2022/12/07 00:51:26;;;;;;;8.70;4.93;;;;;;;10.65;74.63;100114.13;5017022;28;20056;-83
2022/12/07 00:53:54;;;;;;;11.38;5.47;;;;;;;10.64;74.67;100118.63;5016576;28;20053;-83
2022/12/07 00:56:24;;;;;;;8.98;4.80;;;;;;;10.64;74.49;100120.41;5016855;28;20460;-83
2022/12/07 00:58:53;;;;;;;8.45;5.25;;;;;;;10.62;74.52;100112.53;5016813;28;20046;-83
2022/12/07 01:01:22;;;;;;;8.50;4.97;;;;;;;10.62;74.48;100114.34;5016654;28;20515;-83
2022/12/07 01:03:51;;;;;;;9.93;4.90;;;;;;;10.59;74.27;100096.69;4998969;28;20045;-83
2022/12/07 01:06:21;;;;;;;9.10;5.10;;;;;;;10.61;74.35;100102.78;5016595;28;20552;-83
2022/12/07 01:08:52;;;;;;;7.80;4.72;;;;;;;10.59;74.27;100100.22;5016314;28;20121;-83
2022/12/07 01:11:23;;;;;;;9.20;5.15;;;;;;;10.58;74.38;100098.50;5017244;28;20485;-83
2022/12/07 01:13:52;;;;;;;8.38;4.95;;;;;;;10.58;74.39;100097.66;5016186;28;20486;-84
2022/12/07 01:16:21;;;;;;;7.68;4.60;;;;;;;10.58;74.24;100102.97;5016035;28;20048;-83
2022/12/07 01:18:51;;;;;;;8.00;4.88;;;;;;;10.57;74.28;100109.28;5016377;28;20049;-83
2022/12/07 01:21:21;;;;;;;10.02;4.72;;;;;;;10.53;74.26;100099.75;5016809;28;20054;-83
2022/12/07 01:23:51;;;;;;;8.63;4.90;;;;;;;10.55;74.13;100111.19;5016190;28;20073;-83
2022/12/07 01:26:22;;;;;;;9.02;5.30;;;;;;;10.53;74.15;100102.44;5016335;28;20049;-83
2022/12/07 01:28:50;;;;;;;8.75;4.65;;;;;;;10.54;74.11;100105.00;5016901;28;20388;-83
2022/12/07 01:31:21;;;;;;;9.48;5.20;;;;;;;10.52;74.08;100106.06;5016235;28;20076;-84
2022/12/07 01:33:52;;;;;;;8.50;5.00;;;;;;;10.51;74.02;100097.16;5016424;28;20104;-84
2022/12/07 01:36:22;;;;;;;8.70;4.95;;;;;;;10.51;74.09;100097.16;5016308;28;20112;-83
2022/12/07 01:38:56;;;;;;;10.27;5.70;;;;;;;10.48;74.02;100096.50;5016147;28;20077;-84
2022/12/07 01:41:26;;;;;;;6.90;4.65;;;;;;;10.49;74.27;100104.41;5016019;28;20495;-84
2022/12/07 01:44:14;;;;;;;10.43;5.10;;;;;;;10.49;74.10;100104.41;5016583;28;20056;-84
2022/12/07 01:46:44;;;;;;;7.85;4.55;;;;;;;10.49;74.06;100103.56;5015908;28;20050;-84
2022/12/07 01:49:18;;;;;;;8.23;5.20;;;;;;;10.45;73.89;100092.22;5015715;28;20096;-84
2022/12/07 01:51:48;;;;;;;9.52;5.43;;;;;;;10.46;73.93;100104.59;5015685;28;20050;-83
2022/12/07 01:54:21;;;;;;;8.55;5.00;;;;;;;10.47;73.94;100089.47;5015815;28;20049;-84
2022/12/07 01:56:52;;;;;;;10.07;5.72;;;;;;;10.46;73.82;100095.75;5016070;28;20080;-84
2022/12/07 01:59:24;;;;;;;7.95;4.85;;;;;;;10.43;73.48;100094.13;5016236;28;20060;-84
2022/12/07 02:01:52;;;;;;;8.82;5.05;;;;;;;10.44;73.71;100101.19;5015803;28;20060;-84
2022/12/07 02:04:22;;;;;;;9.15;5.75;;;;;;;10.43;73.81;100079.94;5015921;28;20400;-84
2022/12/07 02:06:51;;;;;;;8.48;5.38;;;;;;;10.41;73.73;100087.16;4997983;28;20042;-84
2022/12/07 02:09:20;;;;;;;11.40;5.47;;;;;;;10.41;73.73;100100.50;5014821;28;20137;-84
2022/12/07 02:11:49;;;;;;;9.88;5.85;;;;;;;10.39;73.66;100095.25;5015334;28;20107;-84
2022/12/07 02:14:17;;;;;;;8.40;5.10;;;;;;;10.40;73.60;100098.78;5015247;28;20069;-84
2022/12/07 02:16:55;;;;;;;9.63;5.80;;;;;;;10.40;73.62;100093.44;5015177;28;20046;-84
2022/12/07 02:20:04;;;;;;;8.82;5.30;;;;;;;10.38;73.63;100088.22;5015723;28;20049;-84
2022/12/07 02:23:05;;;;;;;9.70;5.32;;;;;;;10.39;73.68;100086.41;5015157;28;20042;-84
2022/12/07 02:25:53;;;;;;;9.95;5.95;;;;;;;10.34;73.71;100077.84;5015324;28;20069;-82
2022/12/07 02:28:31;;;;;;;8.23;5.90;;;;;;;10.37;73.51;100078.50;5015277;28;20050;-82
2022/12/07 02:31:06;;;;;;;9.82;5.75;;;;;;;10.37;73.58;100088.31;5015126;28;20053;-82
2022/12/07 02:33:37;;;;;;;10.88;6.30;;;;;;;10.35;73.48;100087.56;5014640;28;20061;-82
2022/12/07 02:36:09;;;;;;;9.00;5.85;;;;;;;10.34;73.44;100084.03;5014305;28;20045;-82
2022/12/07 02:38:44;;;;;;;8.52;5.38;;;;;;;10.33;73.51;100093.00;5015156;28;20391;-82
2022/12/07 02:41:18;;;;;;;9.68;5.60;;;;;;;10.32;73.22;100092.09;5015787;28;20056;-83
2022/12/07 02:43:51;;;;;;;10.48;6.20;;;;;;;10.30;73.34;100088.69;4997408;28;20046;-82
2022/12/07 02:46:25;;;;;;;10.20;6.25;;;;;;;10.32;73.34;100091.25;5015052;28;20400;-81
2022/12/07 02:48:55;;;;;;;10.27;5.82;;;;;;;10.31;73.31;100085.06;5014613;28;20049;-84
2022/12/07 02:51:24;;;;;;;10.05;6.00;;;;;;;10.29;73.38;100081.63;5014286;28;20504;-84
2022/12/07 02:53:52;;;;;;;10.55;5.97;;;;;;;10.29;73.34;100086.97;5014832;28;20042;-84
2022/12/07 02:56:29;;;;;;;9.73;6.10;;;;;;;10.29;73.22;100086.97;4996059;28;20551;-81
2022/12/07 02:59:08;;;;;;;9.98;6.20;;;;;;;10.28;73.29;100084.41;4994901;28;20069;-83
2022/12/07 03:01:48;;;;;;;10.40;6.38;;;;;;;10.28;73.36;100082.59;4994466;28;20097;-83
2022/12/07 03:04:41;;;;;;;9.32;5.97;;;;;;;10.27;73.27;100078.22;4995021;28;20051;-84
2022/12/07 03:07:17;;;;;;;9.00;5.82;;;;;;;10.27;73.26;100072.88;4994721;28;20470;-83
2022/12/07 03:09:54;;;;;;;9.65;5.78;;;;;;;10.28;73.10;100076.41;4994243;28;20081;-84
2022/12/07 03:12:32;;;;;;;9.68;5.72;;;;;;;10.27;73.53;100066.69;4994465;28;20578;-82
2022/12/07 03:15:06;;;;;;;9.85;5.75;;;;;;;10.22;73.24;100058.13;4994868;28;20061;-84
2022/12/07 03:17:40;;;;;;;9.00;5.95;;;;;;;10.25;73.22;100063.28;4977359;28;20054;-83
2022/12/07 03:20:12;;;;;;;9.98;5.82;;;;;;;10.24;73.32;100054.44;4994931;28;20042;-82
2022/12/07 03:22:44;;;;;;;10.38;5.68;;;;;;;10.22;73.36;100058.97;4994945;28;20057;-81
2022/12/07 03:25:16;;;;;;;8.50;5.35;;;;;;;10.24;73.33;100066.91;4994468;28;20054;-82
2022/12/07 03:27:53;;;;;;;10.68;5.95;;;;;;;10.24;73.17;100062.44;4994608;28;20050;-82
2022/12/07 03:30:24;;;;;;;9.55;5.97;;;;;;;10.23;73.30;100071.38;4976943;28;20085;-82
2022/12/07 03:32:57;;;;;;;10.68;5.88;;;;;;;10.23;73.13;100071.38;4994542;28;20066;-81
2022/12/07 03:35:29;;;;;;;9.55;6.10;;;;;;;10.23;72.98;100070.50;4994790;28;20050;-82
2022/12/07 03:38:04;;;;;;;9.35;5.63;;;;;;;10.23;73.45;100076.72;4994815;28;20057;-82
2022/12/07 03:40:36;;;;;;;8.63;5.35;;;;;;;10.22;73.29;100074.97;4994572;28;20066;-82
2022/12/07 03:43:05;;;;;;;10.23;5.53;;;;;;;10.22;73.05;100074.13;4994312;28;20046;-82
2022/12/07 03:45:39;;;;;;;9.98;5.70;;;;;;;10.22;73.09;100082.09;4994264;28;20085;-81
2022/12/07 03:48:19;;;;;;;10.18;6.10;;;;;;;10.21;73.28;100083.88;4993699;28;20496;-81
2022/12/07 03:50:53;;;;;;;9.02;5.55;;;;;;;10.20;73.14;100084.84;4994311;28;20053;-81
2022/12/07 03:53:28;;;;;;;9.00;5.90;;;;;;;10.21;73.29;100089.22;4994232;28;20051;-82
2022/12/07 03:55:58;;;;;;;9.88;6.03;;;;;;;10.20;73.16;100089.31;4994269;28;20054;-80
2022/12/07 03:58:27;;;;;;;10.10;5.95;;;;;;;10.20;73.06;100091.97;4993980;28;20048;-81
2022/12/07 04:00:55;;;;;;;9.82;6.10;;;;;;;10.19;73.21;100095.59;4994288;28;20090;-82
2022/12/07 04:03:25;;;;;;;10.38;5.82;;;;;;;10.20;73.17;100100.84;4994049;28;20404;-82
2022/12/07 04:05:54;;;;;;;9.85;6.20;;;;;;;10.18;73.03;100097.41;4994321;28;20049;-82
2022/12/07 04:08:22;;;;;;;8.82;5.72;;;;;;;10.18;73.36;100097.41;4993762;28;20133;-81
2022/12/07 04:10:51;;;;;;;9.13;5.68;;;;;;;10.18;73.24;100096.56;4993936;28;20054;-82
2022/12/07 04:13:19;;;;;;;10.60;5.93;;;;;;;10.16;73.13;100087.81;4994025;28;20496;-82
2022/12/07 04:15:47;;;;;;;9.30;5.72;;;;;;;10.18;73.02;100093.88;4994266;28;20050;-82
2022/12/07 04:18:15;;;;;;;11.13;6.00;;;;;;;10.15;73.13;100094.94;4993641;28;20050;-82
2022/12/07 04:20:44;;;;;;;9.52;5.88;;;;;;;10.17;73.20;100097.50;4976698;28;20054;-82
2022/12/07 04:23:13;;;;;;;9.68;5.53;;;;;;;10.18;73.35;100101.88;4993830;28;20046;-79
2022/12/07 04:25:41;;;;;;;8.38;5.40;;;;;;;10.16;73.16;100101.97;4993654;28;20134;-81
2022/12/07 04:28:09;;;;;;;9.98;5.93;;;;;;;10.16;73.17;100095.78;4993839;28;20051;-81
2022/12/07 04:30:38;;;;;;;10.18;6.03;;;;;;;10.15;73.21;100102.94;4994461;28;20054;-80
2022/12/07 04:33:06;;;;;;;9.77;6.15;;;;;;;10.14;73.14;100095.91;4993792;28;20109;-82
2022/12/07 04:35:34;;;;;;;8.75;5.45;;;;;;;10.13;73.35;100096.81;4993864;28;20046;-83
2022/12/07 04:38:04;;;;;;;10.68;5.82;;;;;;;10.14;73.33;100089.72;4994212;28;20054;-82
2022/12/07 04:40:32;;;;;;;9.50;5.53;;;;;;;10.13;72.97;100096.81;4994047;28;20066;-80
2022/12/07 04:43:00;;;;;;;10.05;6.07;;;;;;;10.12;73.31;100092.44;4993767;28;20039;-82
2022/12/07 04:45:28;;;;;;;9.57;5.80;;;;;;;10.11;73.21;100096.06;4994172;28;20055;-81
2022/12/07 04:47:56;;;;;;;9.20;5.55;;;;;;;10.12;72.99;100094.25;4993392;28;20584;-81
2022/12/07 04:50:24;;;;;;;7.78;5.22;;;;;;;10.12;73.12;100095.09;4993651;28;20034;-81
2022/12/07 04:52:52;;;;;;;10.38;6.38;;;;;;;10.12;73.02;100094.25;4993432;28;20105;-81
2022/12/07 04:55:21;;;;;;;9.60;5.82;;;;;;;10.12;72.95;100099.59;4993329;28;20074;-81
2022/12/07 04:57:49;;;;;;;9.82;5.85;;;;;;;10.11;73.01;100098.72;4993253;28;20559;-83
2022/12/07 05:00:18;;;;;;;8.68;5.32;;;;;;;10.10;73.17;100097.00;4996640;28;20394;-81
2022/12/07 05:02:46;;;;;;;8.90;5.43;;;;;;;10.10;73.18;100097.00;4997180;28;20042;-82
2022/12/07 05:05:14;;;;;;;10.18;5.82;;;;;;;10.10;73.05;100091.69;4996982;28;20050;-82
2022/12/07 05:07:42;;;;;;;7.47;5.20;;;;;;;10.10;72.75;100097.00;4996534;28;20089;-82
2022/12/07 05:10:11;;;;;;;8.75;5.18;;;;;;;10.10;72.75;100091.69;4996869;28;20074;-81
2022/12/07 05:12:41;;;;;;;10.20;5.15;;;;;;;10.08;72.81;100082.94;4996953;28;20468;-82
2022/12/07 05:15:09;;;;;;;8.00;4.80;;;;;;;10.09;72.61;100078.47;4996957;28;20101;-81
2022/12/07 05:17:37;;;;;;;7.72;4.40;;;;;;;10.09;72.75;100084.63;4996782;28;20042;-82
2022/12/07 05:20:07;;;;;;;8.35;4.82;;;;;;;10.09;72.80;100075.78;4996757;28;20065;-82
2022/12/07 05:22:36;;;;;;;7.40;4.22;;;;;;;10.08;72.73;100071.41;4996562;28;20120;-82
2022/12/07 05:25:05;;;;;;;7.45;4.20;;;;;;;10.06;72.71;100066.19;4996662;28;20041;-83
2022/12/07 05:27:33;;;;;;;6.70;4.32;;;;;;;10.08;72.91;100068.75;4996616;28;20050;-83
2022/12/07 05:30:04;;;;;;;7.32;3.75;;;;;;;10.05;72.76;100056.47;4996810;28;20543;-82
2022/12/07 05:32:32;;;;;;;6.95;4.30;;;;;;;10.05;72.53;100067.13;4996523;28;20042;-83
2022/12/07 05:35:00;;;;;;;6.35;4.10;;;;;;;10.06;72.79;100063.53;4996479;28;20047;-82
2022/12/07 05:37:28;;;;;;;7.97;4.70;;;;;;;10.03;72.71;100058.34;4997092;28;20422;-82
2022/12/07 05:39:56;;;;;;;6.65;4.40;;;;;;;10.04;72.41;100062.75;4995883;28;20089;-81
2022/12/07 05:42:25;;;;;;;7.38;4.00;;;;;;;10.04;72.28;100065.44;4996486;28;20046;-82
2022/12/07 05:44:53;;;;;;;6.93;4.57;;;;;;;10.00;72.36;100063.88;4995945;28;20488;-82
2022/12/07 05:47:23;;;;;;;8.18;4.60;;;;;;;10.02;72.43;100070.81;4996188;28;20042;-83
2022/12/07 05:49:52;;;;;;;6.68;4.20;;;;;;;10.03;72.54;100069.00;4995963;28;20133;-82
2022/12/07 05:52:20;;;;;;;7.03;4.55;;;;;;;10.04;72.45;100070.75;4995705;28;20074;-82
2022/12/07 05:54:49;;;;;;;6.97;3.92;;;;;;;10.02;72.61;100077.97;4978588;28;20456;-82
2022/12/07 05:57:17;;;;;;;7.55;4.05;;;;;;;9.99;72.61;100070.16;4995913;28;20077;-81
2022/12/07 05:59:44;;;;;;;6.05;3.80;;;;;;;9.98;72.55;100071.97;4995982;28;20056;-81
2022/12/07 06:02:15;;;;;;;6.57;3.72;;;;;;;9.98;72.51;100076.44;4995761;28;20050;-82
2022/12/07 06:04:47;;;;;;;7.63;4.22;;;;;;;9.97;72.60;100074.75;4996407;28;20055;-82
2022/12/07 06:07:16;;;;;;;5.72;3.13;;;;;;;9.98;72.66;100082.63;4995688;28;20050;-81
2022/12/07 06:09:47;;;;;;;6.85;3.75;;;;;;;9.99;72.81;100075.50;4995753;28;20051;-83
2022/12/07 06:15:01;;;;;;;6.20;3.50;;;;;;;9.97;72.82;100074.75;4995212;28;20580;-81
2022/12/07 06:17:30;;;;;;;6.38;3.65;;;;;;;9.95;72.85;100076.66;4995517;28;20125;-82
2022/12/07 06:20:00;;;;;;;5.40;3.55;;;;;;;9.99;72.71;100072.81;4995466;28;20038;-82
2022/12/07 06:22:28;;;;;;;5.95;3.38;;;;;;;9.99;72.80;100067.50;4995444;28;20093;-81
2022/12/07 06:24:57;;;;;;;5.65;3.55;;;;;;;9.98;72.76;100076.44;4995058;28;20110;-81
2022/12/07 06:27:25;;;;;;;5.93;3.67;;;;;;;9.98;72.82;100076.44;4995154;28;20081;-81
2022/12/07 06:29:53;;;;;;;6.60;3.90;;;;;;;9.99;72.66;100078.16;4995088;28;20049;-81
2022/12/07 06:32:21;;;;;;;6.43;4.07;;;;;;;9.98;72.88;100074.63;4995039;28;20396;-81
2022/12/07 06:34:49;;;;;;;7.35;4.40;;;;;;;9.98;72.83;100082.63;4994821;28;20066;-82
2022/12/07 06:37:18;;;;;;;6.63;4.28;;;;;;;9.99;72.85;100078.16;4994912;28;20097;-82
2022/12/07 06:39:47;;;;;;;7.10;4.28;;;;;;;9.99;72.74;100084.34;4994691;28;20065;-81
2022/12/07 06:42:15;;;;;;;7.30;4.20;;;;;;;9.98;72.96;100081.78;4994908;28;20141;-82
2022/12/07 06:44:43;;;;;;;7.43;4.43;;;;;;;9.98;72.89;100082.63;4994872;28;20042;-81
2022/12/07 06:47:11;;;;;;;7.55;4.38;;;;;;;9.99;72.71;100091.47;4995084;28;20052;-81
2022/12/07 06:49:59;;;;;;;7.63;4.68;;;;;;;9.99;73.01;100087.00;4994970;28;20048;-81
2022/12/07 06:52:31;;;;;;;8.07;4.35;;;;;;;9.99;73.11;100092.34;4994165;28;20077;-82
2022/12/07 06:54:59;;;;;;;7.40;4.47;;;;;;;10.00;73.07;100090.53;4994925;28;20046;-79
2022/12/07 06:57:27;;;;;;;8.45;4.65;;;;;;;9.99;73.01;100096.81;5012539;28;20054;-80
2022/12/07 06:59:56;;;;;;;7.68;5.13;;;;;;;9.96;73.19;100089.00;5014180;28;20137;-79
2022/12/07 07:02:24;;;;;;;7.65;5.05;;;;;;;10.01;73.09;100103.75;5014032;28;20050;-81
2022/12/07 07:04:52;;;;;;;8.27;4.82;;;;;;;10.01;73.09;100103.75;5012348;28;20040;-79
2022/12/07 07:07:20;;;;;;;8.90;4.85;;;;;;;10.01;73.05;100093.09;5013842;28;20042;-81
2022/12/07 07:09:50;;;;;;;7.40;4.93;;;;;;;10.00;73.20;100101.19;5014124;28;20069;-79
2022/12/07 07:12:19;;;;;;;8.05;4.95;;;;;;;10.02;73.09;100093.94;5014171;28;20046;-80
2022/12/07 07:14:47;;;;;;;8.57;5.03;;;;;;;10.01;73.17;100105.56;5014035;28;20049;-79
2022/12/07 07:17:15;;;;;;;9.52;5.45;;;;;;;10.02;73.26;100104.59;5006124;28;20129;-80
2022/12/07 07:19:44;;;;;;;8.07;5.57;;;;;;;9.97;73.32;100099.56;5000907;28;20439;-81
2022/12/07 07:22:12;;;;;;;8.48;5.13;;;;;;;9.98;73.39;100092.44;5007808;28;20054;-81
2022/12/07 07:24:40;;;;;;;10.05;5.45;;;;;;;9.99;73.45;100096.81;4987265;28;20134;-79
2022/12/07 07:27:10;;;;;;;9.40;5.90;;;;;;;9.98;73.47;100103.94;4982407;28;20046;-80
2022/12/07 07:29:38;;;;;;;8.70;5.50;;;;;;;9.99;73.82;100099.47;5004545;28;20077;-82
2022/12/07 07:32:07;;;;;;;10.07;5.80;;;;;;;10.01;73.54;100102.91;5004370;28;20052;-80
2022/12/07 07:34:35;;;;;;;8.77;5.40;;;;;;;9.95;73.56;100089.97;5005615;28;20511;-80
2022/12/07 07:37:04;;;;;;;8.55;5.50;;;;;;;9.99;73.70;100107.47;4995676;28;20047;-79
2022/12/07 07:39:32;;;;;;;9.23;5.60;;;;;;;10.01;73.64;100103.75;4997414;28;20054;-80
2022/12/07 07:42:00;;;;;;;8.88;5.70;;;;;;;10.01;73.41;100102.91;4994147;28;20434;-82
2022/12/07 07:44:30;;;;;;;9.95;5.55;;;;;;;9.97;73.57;100088.06;4995763;28;20058;-81
2022/12/07 07:47:02;;;;;;;8.60;5.53;;;;;;;10.01;73.72;100101.09;4991029;28;20489;-80
2022/12/07 07:49:30;;;;;;;10.55;6.05;;;;;;;10.02;73.63;100099.28;5011154;28;20129;-82
2022/12/07 07:51:59;;;;;;;9.98;6.00;;;;;;;10.06;73.54;100098.16;4982323;28;20097;-82
2022/12/07 07:54:27;;;;;;;9.80;6.05;;;;;;;10.06;73.56;100100.81;5008508;28;20045;-85
2022/12/07 07:56:55;;;;;;;10.80;6.03;;;;;;;10.07;73.62;100102.53;4982737;28;20054;-85
2022/12/07 07:59:24;;;;;;;11.13;5.97;;;;;;;10.08;73.74;100109.59;4995291;28;20133;-80
2022/12/07 08:01:54;;;;;;;9.15;5.93;;;;;;;10.06;73.74;100100.81;5013265;28;20053;-80
2022/12/07 08:04:23;;;;;;;9.23;5.88;;;;;;;10.09;73.80;100105.97;5013302;28;20045;-82
2022/12/07 08:06:57;;;;;;;8.77;5.90;;;;;;;10.09;73.76;100116.63;4996424;28;20076;-80
2022/12/07 08:09:25;;;;;;;10.57;6.38;;;;;;;10.11;73.78;100113.84;4995465;28;20140;-80
2022/12/07 08:11:53;;;;;;;8.55;5.50;;;;;;;10.09;73.76;100097.97;5013004;28;20050;-82
2022/12/07 08:14:21;;;;;;;9.13;5.70;;;;;;;10.13;73.99;100109.28;5013596;28;20050;-82
2022/12/07 08:16:49;;;;;;;10.38;6.85;;;;;;;10.13;73.90;100112.81;5013488;28;20038;-80
2022/12/07 08:19:19;;;;;;;8.32;5.93;;;;;;;10.13;73.89;100110.16;4995957;28;20046;-79
2022/12/07 08:21:47;;;;;;;11.90;6.55;;;;;;;10.13;73.91;100111.94;5013488;28;20451;-79
2022/12/07 08:24:15;;;;;;;9.50;6.15;;;;;;;10.14;73.89;100117.22;5013379;28;20084;-80
2022/12/07 08:26:44;;;;;;;10.73;6.65;;;;;;;10.15;73.97;100126.94;4995736;28;20050;-83
2022/12/07 08:29:12;;;;;;;9.77;5.68;;;;;;;10.16;74.10;100130.44;5013380;28;20042;-80
2022/12/07 08:31:40;;;;;;;9.60;6.65;;;;;;;10.18;74.17;100125.88;4995540;28;20077;-81
2022/12/07 08:34:10;;;;;;;8.95;6.20;;;;;;;10.17;74.05;100125.03;5014791;28;20082;-82
2022/12/07 08:36:40;;;;;;;10.20;6.07;;;;;;;10.19;74.24;100123.09;5017143;28;20116;-81
2022/12/07 08:39:09;;;;;;;10.95;6.35;;;;;;;10.19;74.55;100123.09;5017200;28;20057;-81
2022/12/07 08:41:57;;;;;;;8.88;6.40;;;;;;;10.20;74.42;100124.81;5016866;28;20046;-80
2022/12/07 08:44:25;;;;;;;10.20;6.18;;;;;;;10.21;74.35;100131.88;4999193;28;20485;-81
2022/12/07 08:46:59;;;;;;;10.65;5.63;;;;;;;10.20;74.45;100131.97;5016965;28;20129;-81
2022/12/07 08:49:34;;;;;;;9.27;5.97;;;;;;;10.23;74.49;100138.03;5016807;28;20050;-81
2022/12/07 08:52:06;;;;;;;9.10;5.68;;;;;;;10.18;74.52;100120.53;4999273;28;20050;-81
2022/12/07 08:54:37;;;;;;;9.48;6.07;;;;;;;10.24;74.70;100131.72;4999212;28;20133;-81
2022/12/07 08:57:06;;;;;;;10.80;6.38;;;;;;;10.25;74.56;100133.44;5016862;28;20060;-80
2022/12/07 08:59:36;;;;;;;10.38;6.50;;;;;;;10.26;74.72;100129.81;5016202;28;20057;-80
2022/12/07 09:02:06;;;;;;;12.30;6.50;;;;;;;10.28;74.62;100135.06;5016786;28;20132;-82
2022/12/07 09:04:34;;;;;;;10.45;6.30;;;;;;;10.26;74.75;100134.31;5016166;28;20042;-80
2022/12/07 09:07:04;;;;;;;11.05;5.82;;;;;;;10.30;74.74;100131.34;5016201;28;20420;-81
2022/12/07 09:09:32;;;;;;;9.68;6.07;;;;;;;10.31;74.88;100133.06;4998368;28;20465;-82
2022/12/07 09:12:00;;;;;;;9.35;6.50;;;;;;;10.32;74.93;100131.25;5016063;28;20048;-81
2022/12/07 09:14:29;;;;;;;9.60;6.10;;;;;;;10.30;74.88;100128.69;5016363;28;20099;-81
2022/12/07 09:17:06;;;;;;;9.05;5.63;;;;;;;10.36;74.94;100130.13;5016289;28;20046;-80
2022/12/07 09:19:36;;;;;;;9.30;5.70;;;;;;;10.36;75.22;100119.47;4999151;28;20407;-81
2022/12/07 09:22:06;;;;;;;8.13;5.47;;;;;;;10.35;75.07;100111.56;5016272;28;20046;-81
2022/12/07 09:24:34;;;;;;;9.70;5.72;;;;;;;10.39;75.61;100113.06;5016217;28;20049;-80
2022/12/07 09:27:02;;;;;;;8.45;5.53;;;;;;;10.40;75.60;100112.13;4998356;28;20518;-81
2022/12/07 09:29:30;;;;;;;8.75;5.65;;;;;;;10.42;75.48;100102.22;4998026;28;20416;-80
2022/12/07 09:31:58;;;;;;;8.70;5.30;;;;;;;10.42;75.55;100105.75;4998360;28;20052;-81
2022/12/07 09:34:27;;;;;;;8.25;5.65;;;;;;;10.45;75.55;100107.38;5015990;28;20042;-80
2022/12/07 09:36:57;;;;;;;9.35;5.80;;;;;;;10.45;75.69;100110.91;5015619;28;20050;-80
2022/12/07 09:39:27;;;;;;;8.32;5.43;;;;;;;10.45;75.88;100102.03;4998021;28;20558;-80
2022/12/07 09:41:58;;;;;;;7.25;5.15;;;;;;;10.47;75.69;100102.78;5015876;28;20049;-81
2022/12/07 09:44:28;;;;;;;8.25;5.35;;;;;;;10.48;75.78;100097.38;5015457;28;20159;-81
2022/12/07 09:46:57;;;;;;;8.77;5.00;;;;;;;10.51;76.04;100101.63;5015467;28;20073;-81
2022/12/07 09:49:29;;;;;;;7.38;4.72;;;;;;;10.52;75.70;100098.03;5015650;28;20038;-81
2022/12/07 09:52:17;;;;;;;9.63;5.82;;;;;;;10.53;75.76;100095.28;4998344;28;20046;-81
2022/12/07 09:54:50;;;;;;;8.57;5.05;;;;;;;10.55;75.72;100093.38;5016058;28;20046;-81
2022/12/07 09:57:28;;;;;;;7.45;4.90;;;;;;;10.55;76.00;100087.19;5015352;28;20459;-82
2022/12/07 10:00:00;;;;;;;9.68;5.55;;;;;;;10.54;75.95;100088.13;5015305;28;20476;-82
2022/12/07 10:02:36;;;;;;;7.47;5.10;;;;;;;10.56;76.35;100086.22;4997620;28;20046;-81
2022/12/07 10:05:06;;;;;;;7.50;5.03;;;;;;;10.58;76.37;100077.16;5015551;28;20042;-80
2022/12/07 10:07:35;;;;;;;8.45;5.18;;;;;;;10.60;76.28;100077.06;5015538;28;20045;-81
2022/12/07 10:10:13;;;;;;;7.88;5.07;;;;;;;10.64;76.01;100083.09;5015292;28;20382;-80
2022/12/07 10:12:55;;;;;;;8.27;4.95;;;;;;;10.65;75.85;100082.97;5014852;28;20403;-81
2022/12/07 10:15:23;;;;;;;9.57;5.47;;;;;;;10.69;75.85;100084.47;5015409;28;20066;-80
2022/12/07 10:17:53;;;;;;;7.35;4.40;;;;;;;10.80;75.92;100078.47;5015625;28;20049;-80
2022/12/07 10:20:26;;;;;;;7.57;4.78;;;;;;;10.97;75.55;100080.06;5014845;28;20052;-80
2022/12/07 10:23:00;;;;;;;7.95;4.97;;;;;;;11.01;75.06;100076.25;5015078;28;20077;-80
2022/12/07 10:25:33;;;;;;;6.97;4.32;;;;;;;11.08;75.03;100074.88;5015389;28;20132;-80
2022/12/07 10:28:14;;;;;;;7.43;4.17;;;;;;;11.06;74.87;100082.13;5015590;28;20053;-80
2022/12/07 10:30:58;;;;;;;7.47;4.50;;;;;;;11.03;75.15;100079.69;4998401;28;20298;-80
2022/12/07 10:33:33;;;;;;;8.30;4.50;;;;;;;11.08;75.31;100080.22;5014756;28;20042;-81
2022/12/07 10:36:16;;;;;;;6.90;4.13;;;;;;;11.20;74.85;100073.25;5015195;28;20088;-80
2022/12/07 10:38:47;;;;;;;5.78;3.85;;;;;;;11.17;74.80;100063.59;5014878;28;20393;-81
2022/12/07 10:41:19;;;;;;;6.15;4.22;;;;;;;11.23;74.61;100063.22;4997381;28;20065;-81
2022/12/07 10:43:53;;;;;;;6.18;3.92;;;;;;;11.23;74.70;100063.22;5015149;28;20057;-80
2022/12/07 10:46:54;;;;;;;7.78;3.97;;;;;;;11.23;74.47;100051.69;5014824;28;20077;-80
2022/12/07 10:50:22;;;;;;;6.68;3.92;;;;;;;11.24;74.56;100048.03;5014944;28;20073;-81
2022/12/07 10:53:05;;;;;;;6.22;3.72;;;;;;;11.24;74.49;100053.38;4878515;29;20503;-80
2022/12/07 10:55:49;;;;;;;6.65;4.10;;;;;;;11.30;74.26;100059.19;4915593;29;20048;-81
2022/12/07 10:58:32;;;;;;;5.82;3.95;;;;;;;11.35;74.40;100053.53;4999362;28;20050;-81
2022/12/07 11:01:11;;;;;;;7.82;3.67;;;;;;;11.42;74.31;100058.38;5013924;28;20495;-81
2022/12/07 11:03:57;;;;;;;6.00;3.78;;;;;;;11.46;74.18;100053.66;5014477;28;20050;-81
2022/12/07 11:06:34;;;;;;;5.68;3.67;;;;;;;11.49;74.67;100050.81;5014387;28;20092;-81
2022/12/07 11:09:29;;;;;;;6.55;3.90;;;;;;;11.49;74.79;100047.28;5014783;28;20074;-81
2022/12/07 11:12:26;;;;;;;6.38;3.67;;;;;;;11.45;74.99;100044.78;5014526;28;20076;-81
2022/12/07 11:14:59;;;;;;;6.10;3.85;;;;;;;11.46;75.05;100048.31;5013599;28;20093;-82
2022/12/07 11:17:36;;;;;;;6.38;3.50;;;;;;;11.44;75.29;100051.09;5014643;28;20104;-81
2022/12/07 11:20:21;;;;;;;6.15;3.70;;;;;;;11.36;75.22;100034.72;5014055;28;20048;-81
2022/12/07 11:22:56;;;;;;;6.35;3.38;;;;;;;11.42;75.34;100042.34;4996527;28;20420;-81
2022/12/07 11:25:32;;;;;;;6.03;3.75;;;;;;;11.41;75.13;100040.63;5014037;28;20064;-81
2022/12/07 11:28:19;;;;;;;6.97;3.88;;;;;;;11.40;75.08;100044.25;4996610;28;20050;-81
2022/12/07 11:30:58;;;;;;;7.68;3.92;;;;;;;11.39;75.13;100042.56;5013659;28;20078;-80
2022/12/07 11:33:39;;;;;;;6.20;3.70;;;;;;;11.39;75.04;100039.88;5014582;28;20050;-80
2022/12/07 11:36:18;;;;;;;5.35;3.38;;;;;;;11.39;75.17;100036.34;5014135;28;20161;-82
2022/12/07 11:38:51;;;;;;;6.00;3.72;;;;;;;11.38;75.08;100038.16;4996153;28;20050;-82
2022/12/07 11:41:23;;;;;;;;;;;;;;;11.38;74.90;100035.47;5013835;28;20056;-81
2022/12/07 11:43:56;;;;;;;5.90;3.63;;;;;;;11.40;74.93;100038.06;5014082;28;20016;-82
2022/12/07 11:46:29;;;;;;;5.20;3.20;;;;;;;11.40;74.79;100040.75;5013836;28;20473;-81
2022/12/07 11:49:05;;;;;;;5.43;3.28;;;;;;;11.44;74.71;100034.22;4996087;28;20137;-82